Time;durP1;ratioP1;P1;durP2;ratioP2;P2;SDS_P1;SDS_P2;PMS_P1;PMS_P2;Temp;Humidity;BMP_temperature;BMP_pressure;BME280_temperature;BME280_humidity;BME280_pressure;Samples;Min_cycle;Max_cycle;Signal;HPM_P1;HPM_P2
2022/06/28 00:01:42;;;;;;;1.43;1.33;;;;;;;15.21;96.05;96130.75;5052881;28;20181;-84
2022/06/28 00:04:08;;;;;;;1.45;1.30;;;;;;;15.20;95.87;96139.59;5031415;28;20182;-84
2022/06/28 00:06:34;;;;;;;3.85;1.50;;;;;;;15.28;95.23;96142.19;5033534;28;20187;-84
2022/06/28 00:08:59;;;;;;;2.63;1.30;;;;;;;15.29;94.73;96138.63;5016131;28;20182;-84
2022/06/28 00:11:24;;;;;;;1.63;1.38;;;;;;;15.23;95.23;96142.69;5048682;28;20263;-84
2022/06/28 00:13:50;;;;;;;1.17;1.08;;;;;;;15.18;95.18;96139.72;5037879;28;20182;-84
2022/06/28 00:16:16;;;;;;;2.67;1.25;;;;;;;15.18;94.45;96141.53;5051369;28;20266;-84
2022/06/28 00:18:43;;;;;;;1.73;0.93;;;;;;;15.16;94.54;96135.63;5051499;28;20182;-84
2022/06/28 00:21:09;;;;;;;1.02;0.93;;;;;;;15.17;94.40;96140.69;5034745;28;20758;-84
2022/06/28 00:23:36;;;;;;;1.08;1.08;;;;;;;15.20;93.52;96134.34;5049661;28;20177;-85
2022/06/28 00:26:02;;;;;;;1.17;1.13;;;;;;;15.27;93.23;96141.38;5020290;28;20178;-84
2022/06/28 00:28:28;;;;;;;1.10;1.08;;;;;;;15.23;93.52;96136.63;5034768;28;20210;-84
2022/06/28 00:30:53;;;;;;;4.72;1.10;;;;;;;15.21;94.03;96141.22;5051526;28;20684;-84
2022/06/28 00:33:18;;;;;;;1.20;1.10;;;;;;;15.21;94.23;96135.97;5033439;28;20186;-84
2022/06/28 00:35:44;;;;;;;3.90;1.15;;;;;;;15.22;94.12;96135.00;5051858;28;20210;-84
2022/06/28 00:38:09;;;;;;;2.55;1.23;;;;;;;15.14;94.51;96141.03;5052047;28;20182;-83
2022/06/28 00:40:43;;;;;;;1.67;1.17;;;;;;;15.19;94.75;96124.84;5035100;28;20263;-84
2022/06/28 00:43:08;;;;;;;2.40;1.30;;;;;;;15.16;94.40;96131.22;5034909;28;20197;-83
2022/06/28 00:45:34;;;;;;;1.40;1.20;;;;;;;15.16;94.50;96126.00;5042930;28;20552;-84
2022/06/28 00:47:59;;;;;;;1.63;1.23;;;;;;;15.14;94.41;96125.34;5051479;28;20205;-84
2022/06/28 00:50:26;;;;;;;3.05;1.45;;;;;;;15.11;94.92;96123.06;5051371;28;20209;-83
2022/06/28 00:52:59;;;;;;;2.38;1.30;;;;;;;15.11;94.83;96124.84;5050572;28;20186;-83
2022/06/28 00:55:24;;;;;;;2.63;1.48;;;;;;;15.04;94.98;96119.44;5033010;28;20193;-84
2022/06/28 00:57:50;;;;;;;4.60;1.88;;;;;;;15.04;95.43;96121.25;5051034;28;20185;-83
2022/06/28 01:00:15;;;;;;;2.42;1.20;;;;;;;14.95;95.20;96126.47;5047704;28;20360;-84
2022/06/28 01:02:40;;;;;;;1.37;1.20;;;;;;;14.89;95.68;96127.09;5044580;28;20197;-84
2022/06/28 01:05:06;;;;;;;1.67;1.20;;;;;;;14.86;95.61;96122.19;5050363;28;20657;-83
2022/06/28 01:07:31;;;;;;;2.27;1.40;;;;;;;14.76;95.74;96131.97;5050636;28;20205;-84
2022/06/28 01:09:57;;;;;;;2.33;1.10;;;;;;;14.72;96.41;96125.41;5050875;28;20205;-84
2022/06/28 01:12:22;;;;;;;2.55;1.48;;;;;;;14.66;96.85;96123.41;5051724;28;20185;-83
2022/06/28 01:14:47;;;;;;;1.77;1.50;;;;;;;14.62;97.15;96127.34;5031374;28;20194;-84
2022/06/28 01:17:13;;;;;;;1.63;1.53;;;;;;;14.65;97.19;96134.84;5049147;28;20178;-83
2022/06/28 01:19:38;;;;;;;1.80;1.40;;;;;;;14.63;96.93;96139.44;5051683;28;21048;-83
2022/06/28 01:22:05;;;;;;;4.53;1.53;;;;;;;14.60;97.36;96137.13;5034486;28;20634;-83
2022/06/28 01:24:30;;;;;;;3.47;1.60;;;;;;;14.57;97.16;96135.63;5051594;28;20579;-83
2022/06/28 01:26:56;;;;;;;1.87;1.47;;;;;;;14.54;97.44;96129.91;5052096;28;20214;-84
2022/06/28 01:29:21;;;;;;;1.60;1.50;;;;;;;14.53;97.15;96134.31;5051727;28;20185;-84
2022/06/28 01:31:47;;;;;;;2.50;1.60;;;;;;;14.49;97.72;96135.63;5052381;28;20181;-83
2022/06/28 01:34:13;;;;;;;3.75;1.80;;;;;;;14.49;98.03;96145.25;5051569;28;20181;-84
2022/06/28 01:36:38;;;;;;;1.95;1.85;;;;;;;14.47;98.00;96147.19;5031693;28;20206;-84
2022/06/28 01:39:04;;;;;;;1.77;1.63;;;;;;;14.45;98.52;96150.78;5035500;28;20272;-84
2022/06/28 01:41:32;;;;;;;3.08;1.80;;;;;;;14.44;98.40;96141.28;5052068;28;20591;-84
2022/06/28 01:43:59;;;;;;;4.35;1.90;;;;;;;14.44;98.44;96149.13;5051061;28;20178;-83
2022/06/28 01:46:25;;;;;;;1.53;1.43;;;;;;;14.47;98.14;96142.78;5052351;28;20265;-83
2022/06/28 01:48:50;;;;;;;2.63;1.80;;;;;;;14.29;98.64;96144.63;5034954;28;20259;-83
2022/06/28 01:51:15;;;;;;;2.47;1.50;;;;;;;14.30;98.27;96141.03;5051852;28;20209;-84
2022/06/28 01:53:41;;;;;;;1.90;1.70;;;;;;;14.21;98.68;96134.16;5051242;28;20178;-84
2022/06/28 01:56:06;;;;;;;4.40;1.87;;;;;;;14.07;99.53;96140.78;5050813;28;20181;-84
2022/06/28 01:58:31;;;;;;;1.87;1.77;;;;;;;14.03;99.29;96140.25;5052295;28;20220;-83
2022/06/28 02:00:57;;;;;;;2.13;1.90;;;;;;;14.02;99.22;96143.03;5051469;28;20202;-84
2022/06/28 02:03:22;;;;;;;2.77;2.03;;;;;;;14.00;99.57;96142.38;5033422;28;20638;-85
2022/06/28 02:05:48;;;;;;;1.80;1.70;;;;;;;13.96;99.68;96141.00;5034329;28;20564;-84
2022/06/28 02:08:13;;;;;;;1.90;1.80;;;;;;;13.89;99.35;96144.25;5051957;28;20642;-84
2022/06/28 02:10:38;;;;;;;2.17;1.97;;;;;;;13.87;99.31;96142.78;5051309;28;20584;-83
2022/06/28 02:13:04;;;;;;;2.20;1.70;;;;;;;13.83;99.61;96147.47;5051690;28;20201;-85
2022/06/28 02:15:29;;;;;;;2.73;1.80;;;;;;;13.80;99.23;96149.59;5033320;28;20264;-83
2022/06/28 02:17:58;;;;;;;4.30;2.00;;;;;;;13.76;99.98;96145.63;5050345;28;20201;-84
2022/06/28 02:20:23;;;;;;;1.93;1.83;;;;;;;13.78;100.00;96143.66;5034136;28;20198;-85
2022/06/28 02:22:48;;;;;;;2.20;1.80;;;;;;;13.72;99.96;96141.69;5050534;28;20209;-84
2022/06/28 02:25:14;;;;;;;2.27;1.90;;;;;;;13.68;99.89;96143.78;5032636;28;20186;-84
2022/06/28 02:27:39;;;;;;;4.23;1.97;;;;;;;13.68;100.00;96141.16;5049821;28;20292;-83
2022/06/28 02:30:05;;;;;;;1.87;1.77;;;;;;;13.65;100.00;96144.09;5017703;28;20202;-84
2022/06/28 02:32:31;;;;;;;3.87;2.00;;;;;;;13.62;100.00;96148.81;5050947;28;20189;-84
2022/06/28 02:40:24;;;;;;;2.10;2.00;;;;;;;13.54;100.00;96152.16;5054360;28;20212;-83
2022/06/28 02:42:58;;;;;;;3.50;2.37;;;;;;;13.52;100.00;96152.31;5034213;28;20193;-83
2022/06/28 02:45:26;;;;;;;3.07;2.17;;;;;;;13.51;100.00;96162.88;5051975;28;20199;-84
2022/06/28 02:47:52;;;;;;;2.97;2.10;;;;;;;13.50;100.00;96163.84;5036931;28;20570;-83
2022/06/28 02:50:18;;;;;;;2.63;2.30;;;;;;;13.47;100.00;96156.34;5053674;28;20201;-84
2022/06/28 02:52:43;;;;;;;2.87;2.07;;;;;;;13.41;100.00;96154.31;5054218;28;20749;-84
2022/06/28 02:55:09;;;;;;;2.43;2.07;;;;;;;13.40;100.00;96157.91;5034287;28;20182;-82
2022/06/28 02:57:36;;;;;;;4.67;2.20;;;;;;;13.41;100.00;96156.94;5053393;28;20181;-84
2022/06/28 03:00:07;;;;;;;2.00;1.77;;;;;;;13.38;100.00;96154.63;5053576;28;20190;-84
2022/06/28 03:02:33;;;;;;;3.70;2.03;;;;;;;13.32;100.00;96156.84;5037198;28;20185;-84
2022/06/28 03:04:59;;;;;;;2.87;2.30;;;;;;;13.32;100.00;96156.84;5035987;28;20190;-83
2022/06/28 03:07:24;;;;;;;2.93;2.13;;;;;;;13.25;100.00;96155.84;5036666;28;20217;-84
2022/06/28 03:09:49;;;;;;;5.47;2.10;;;;;;;13.29;100.00;96149.34;5053520;28;20206;-83
2022/06/28 03:12:15;;;;;;;2.37;2.10;;;;;;;13.20;100.00;96152.03;5033676;28;20209;-84
2022/06/28 03:14:40;;;;;;;2.20;2.00;;;;;;;13.14;100.00;96148.19;5046642;28;20594;-83
2022/06/28 03:17:05;;;;;;;2.30;1.70;;;;;;;13.13;100.00;96156.16;5052951;28;20178;-83
2022/06/28 03:19:30;;;;;;;2.60;2.20;;;;;;;13.09;100.00;96154.81;5052956;28;20229;-83
2022/06/28 03:21:56;;;;;;;4.60;2.17;;;;;;;13.13;100.00;96162.19;5052736;28;20182;-84
2022/06/28 03:24:21;;;;;;;4.40;2.10;;;;;;;13.09;100.00;96166.06;5035854;28;20178;-83
2022/06/28 03:26:46;;;;;;;1.87;1.73;;;;;;;13.07;100.00;96162.78;5033041;28;20190;-84
2022/06/28 03:29:12;;;;;;;1.97;1.87;;;;;;;13.10;100.00;96170.31;5035954;28;20259;-84
2022/06/28 03:31:37;;;;;;;3.93;2.10;;;;;;;13.06;100.00;96184.59;5036215;28;20178;-84
2022/06/28 03:34:03;;;;;;;5.63;2.20;;;;;;;13.03;100.00;96180.50;5032262;28;20178;-83
2022/06/28 03:36:28;;;;;;;2.30;1.90;;;;;;;13.06;100.00;96187.22;5052159;28;20178;-83
2022/06/28 03:38:54;;;;;;;4.33;2.40;;;;;;;13.09;100.00;96189.53;5054881;28;20170;-84
2022/06/28 03:41:22;;;;;;;2.40;2.10;;;;;;;13.11;100.00;96190.22;5052361;28;20216;-83
2022/06/28 03:43:52;;;;;;;2.40;2.20;;;;;;;13.20;100.00;96188.53;5052494;28;20177;-83
2022/06/28 03:46:17;;;;;;;2.70;2.30;;;;;;;13.27;100.00;96192.19;5032509;28;20712;-83
2022/06/28 03:48:43;;;;;;;2.67;2.20;;;;;;;13.37;99.31;96189.50;5029365;28;20194;-84
2022/06/28 03:51:09;;;;;;;2.30;2.10;;;;;;;13.53;99.36;96200.09;5033053;28;20264;-84
2022/06/28 03:53:35;;;;;;;3.80;2.13;;;;;;;13.78;98.61;96204.56;5032482;28;20674;-84
2022/06/28 03:56:00;;;;;;;2.57;2.33;;;;;;;14.55;95.29;96202.13;5032508;28;20240;-83
2022/06/28 03:58:31;;;;;;;4.50;2.10;;;;;;;14.87;94.71;96204.88;5043956;28;20180;-86
2022/06/28 04:00:58;;;;;;;2.93;2.23;;;;;;;15.41;90.67;96199.28;5051629;28;20209;-86
2022/06/28 04:20:46;;;;;;;4.18;1.60;;;;;;;22.31;57.17;96196.56;4951991;28;20201;-85
2022/06/28 04:23:25;;;;;;;2.22;1.65;;;;;;;22.21;55.74;96195.38;4968037;28;20271;-85
2022/06/28 04:33:17;;;;;;;3.35;1.73;;;;;;;22.86;52.59;96198.94;4963136;28;20209;-85
2022/06/28 04:35:45;;;;;;;2.95;1.40;;;;;;;21.35;58.45;96193.41;4892298;29;20249;-86
2022/06/28 04:38:14;;;;;;;2.72;1.70;;;;;;;20.04;63.42;96189.78;4904605;29;20198;-86
2022/06/28 04:40:51;;;;;;;2.22;1.90;;;;;;;18.60;69.43;96187.16;4918856;29;20613;-86
2022/06/28 04:43:25;;;;;;;3.42;2.25;;;;;;;18.74;69.17;96181.13;4916640;29;20194;-86
2022/06/28 04:45:52;;;;;;;5.20;2.15;;;;;;;17.82;74.72;96194.47;4898104;29;20230;-86
2022/06/28 04:48:24;;;;;;;4.57;2.40;;;;;;;19.18;69.97;96188.13;4897675;29;20245;-86
2022/06/28 04:54:22;;;;;;;2.60;2.13;;;;;;;21.39;59.97;96191.19;4915040;28;20559;-86
2022/06/28 05:00:10;;;;;;;3.00;2.10;;;;;;;20.12;65.41;96212.56;4963947;28;20210;-86
2022/06/28 05:02:41;;;;;;;5.40;2.08;;;;;;;22.28;59.34;96212.06;4958816;28;20183;-85
2022/06/28 05:08:27;;;;;;;3.38;2.10;;;;;;;26.78;44.69;96205.31;4982939;28;20212;-85
2022/06/28 05:11:43;;;;;;;;;;;;;;;;;;;;;
2022/06/28 05:14:11;;;;;;;2.83;1.60;;;;;;;27.91;39.21;96201.94;5041529;28;20253;-86
2022/06/28 05:23:05;;;;;;;1.70;1.60;;;;;;;28.49;36.39;96192.78;5050967;28;20692;-85
2022/06/28 05:25:52;;;;;;;1.77;1.30;;;;;;;28.19;36.21;96192.28;5034232;28;20197;-86
2022/06/28 05:28:58;;;;;;;3.05;1.25;;;;;;;28.23;37.09;96188.06;5052877;28;20193;-84
2022/06/28 05:31:48;;;;;;;2.70;1.27;;;;;;;27.15;39.11;96187.19;5037667;28;20213;-85
2022/06/28 05:34:19;;;;;;;2.65;1.40;;;;;;;27.37;37.97;96190.00;5035867;28;20207;-83
2022/06/28 05:36:47;;;;;;;1.48;1.15;;;;;;;26.44;39.33;96196.28;5005566;28;20322;-83
2022/06/28 05:39:28;;;;;;;2.65;1.60;;;;;;;26.98;37.64;96191.59;5024167;28;20242;-83
2022/06/28 05:42:03;;;;;;;2.72;1.17;;;;;;;27.24;37.80;96188.44;5034493;28;20215;-83
2022/06/28 05:44:34;;;;;;;2.55;1.40;;;;;;;27.66;38.01;96188.19;5002504;28;20186;-83
2022/06/28 05:47:05;;;;;;;2.38;1.95;;;;;;;26.65;39.77;96192.22;5034337;28;20704;-84
2022/06/28 05:50:00;;;;;;;2.03;1.42;;;;;;;25.42;42.17;96185.69;5015543;28;20610;-84
2022/06/28 05:52:53;;;;;;;2.47;1.60;;;;;;;23.10;48.96;96179.69;5010040;28;20335;-83
2022/06/28 05:55:38;;;;;;;2.08;1.50;;;;;;;22.71;50.04;96188.59;5005916;28;20190;-83
2022/06/28 05:58:12;;;;;;;2.90;1.75;;;;;;;21.52;54.08;96185.09;5024025;28;20186;-84
2022/06/28 06:04:03;;;;;;;1.55;1.45;;;;;;;19.75;63.18;96197.84;5007214;28;20205;-83
2022/06/28 06:06:31;;;;;;;2.58;1.63;;;;;;;18.88;66.79;96193.44;5011107;28;20620;-84
2022/06/28 06:08:59;;;;;;;1.75;1.60;;;;;;;18.72;66.81;96185.72;5038243;28;20221;-84
2022/06/28 06:11:38;;;;;;;3.95;1.45;;;;;;;19.19;66.27;96182.69;5042372;28;20201;-84
2022/06/28 06:14:20;;;;;;;3.70;1.80;;;;;;;18.88;67.02;96180.28;5045680;28;20170;-83
2022/06/28 06:16:47;;;;;;;2.03;1.60;;;;;;;20.69;60.10;96181.75;5044821;28;20182;-82
2022/06/28 06:19:23;;;;;;;2.70;1.60;;;;;;;22.54;53.01;96163.56;5060178;28;20181;-83
2022/06/28 06:21:55;;;;;;;1.70;1.48;;;;;;;23.65;49.81;96155.38;5038521;28;20209;-84
2022/06/28 06:24:21;;;;;;;1.60;1.50;;;;;;;25.26;45.28;96157.09;5025099;28;20233;-82
2022/06/28 06:26:46;;;;;;;2.45;1.50;;;;;;;25.47;45.75;96159.25;5056433;28;20556;-81
2022/06/28 06:29:12;;;;;;;3.25;1.60;;;;;;;25.52;44.79;96147.94;5043032;28;20186;-82
2022/06/28 06:31:37;;;;;;;2.53;1.80;;;;;;;24.97;45.49;96154.16;5060079;28;20166;-81
2022/06/28 06:34:02;;;;;;;2.15;1.45;;;;;;;24.22;49.05;96151.66;5057763;28;20193;-81
2022/06/28 06:36:28;;;;;;;4.13;1.80;;;;;;;26.39;43.53;96142.91;5056872;28;20193;-82
2022/06/28 06:38:54;;;;;;;4.45;1.83;;;;;;;25.28;44.69;96144.41;5056801;28;20178;-82
2022/06/28 06:41:19;;;;;;;2.88;1.88;;;;;;;25.13;46.31;96142.13;5058163;28;20277;-81
2022/06/28 06:43:45;;;;;;;2.50;2.30;;;;;;;24.94;45.34;96148.47;5037746;28;20657;-81
2022/06/28 06:46:10;;;;;;;2.60;2.40;;;;;;;23.57;49.52;96143.16;5057558;28;20177;-82
2022/06/28 06:48:35;;;;;;;2.53;2.33;;;;;;;22.29;54.12;96144.91;5056962;28;20756;-81
2022/06/28 06:51:01;;;;;;;5.07;2.75;;;;;;;20.59;59.89;96140.69;5053982;28;20610;-82
2022/06/28 06:53:28;;;;;;;3.03;2.70;;;;;;;19.91;63.43;96136.97;5060850;28;20193;-82
2022/06/28 06:55:54;;;;;;;3.40;2.30;;;;;;;20.06;64.66;96129.78;5045123;28;20678;-82
2022/06/28 06:58:19;;;;;;;2.40;2.20;;;;;;;19.97;64.72;96120.41;5040080;28;20178;-82
2022/06/28 07:00:44;;;;;;;3.03;2.67;;;;;;;20.88;61.42;96130.84;5056572;28;20201;-81
2022/06/28 07:03:10;;;;;;;2.95;2.63;;;;;;;21.90;58.82;96119.25;5055425;28;20203;-80
2022/06/28 07:05:35;;;;;;;4.32;2.47;;;;;;;23.22;53.80;96118.09;5055497;28;20665;-82
2022/06/28 07:08:00;;;;;;;3.90;2.58;;;;;;;24.18;49.80;96117.81;5055156;28;20725;-81
2022/06/28 07:10:26;;;;;;;3.40;2.75;;;;;;;23.83;49.67;96122.81;5054888;28;20198;-81
2022/06/28 07:12:51;;;;;;;4.20;2.83;;;;;;;22.76;52.61;96117.28;5035884;28;20198;-83
2022/06/28 07:15:16;;;;;;;3.97;2.80;;;;;;;23.13;52.57;96120.19;5053772;28;20260;-82
2022/06/28 07:17:41;;;;;;;3.72;3.00;;;;;;;23.20;52.92;96118.31;5057429;28;20185;-83
2022/06/28 07:20:07;;;;;;;6.28;2.83;;;;;;;21.93;54.51;96118.88;5055749;28;20194;-83
2022/06/28 07:22:33;;;;;;;4.28;2.83;;;;;;;21.62;56.94;96136.13;5057856;28;20186;-82
2022/06/28 07:24:59;;;;;;;5.05;3.15;;;;;;;21.15;60.14;96129.94;5054452;28;20546;-82
2022/06/28 07:27:25;;;;;;;3.47;3.10;;;;;;;20.51;60.91;96127.66;5055741;28;20194;-82
2022/06/28 07:29:50;;;;;;;5.32;3.10;;;;;;;20.96;60.33;96117.47;5035347;28;20248;-82
2022/06/28 07:32:15;;;;;;;2.50;2.30;;;;;;;21.07;59.98;96129.28;5045926;28;20182;-82
2022/06/28 07:34:41;;;;;;;2.60;2.40;;;;;;;21.60;58.00;96142.63;5053667;28;20212;-82
2022/06/28 07:37:06;;;;;;;3.85;2.72;;;;;;;23.08;53.87;96138.56;5054259;28;20256;-81
2022/06/28 07:39:32;;;;;;;4.25;2.47;;;;;;;24.42;49.91;96140.88;5054473;28;20201;-81
2022/06/28 07:41:57;;;;;;;3.63;2.40;;;;;;;24.26;48.07;96152.84;5054604;28;20683;-81
2022/06/28 07:44:22;;;;;;;2.92;2.58;;;;;;;24.47;48.15;96151.66;5054391;28;20223;-82
2022/06/28 07:46:48;;;;;;;4.15;2.08;;;;;;;24.55;47.94;96148.69;5056163;28;20272;-81
2022/06/28 07:49:16;;;;;;;3.92;2.38;;;;;;;24.80;47.12;96145.16;5040717;28;20197;-82
2022/06/28 07:54:26;;;;;;;2.95;1.90;;;;;;;26.06;44.31;96140.78;5058290;28;20565;-82
2022/06/28 07:56:51;;;;;;;2.95;2.08;;;;;;;25.19;46.02;96141.25;5056971;28;20190;-83
2022/06/28 07:59:16;;;;;;;3.63;2.13;;;;;;;23.85;48.88;96148.06;5055996;28;20190;-82
2022/06/28 08:01:42;;;;;;;2.20;2.00;;;;;;;23.34;49.19;96143.72;5056423;28;20227;-82
2022/06/28 08:04:08;;;;;;;2.15;2.05;;;;;;;22.27;53.23;96146.94;5056439;28;20273;-83
2022/06/28 08:06:33;;;;;;;2.33;2.13;;;;;;;22.70;52.77;96136.63;5040260;28;20272;-81
2022/06/28 08:08:59;;;;;;;2.80;2.13;;;;;;;21.49;54.58;96136.13;5056658;28;20206;-81
2022/06/28 08:11:24;;;;;;;3.70;2.40;;;;;;;20.57;58.38;96129.50;5052560;28;20689;-82
2022/06/28 08:13:50;;;;;;;2.95;2.22;;;;;;;21.08;57.54;96134.38;5039238;28;20182;-82
2022/06/28 08:16:16;;;;;;;2.22;2.03;;;;;;;21.08;58.54;96126.44;5056318;28;20672;-82
2022/06/28 08:18:42;;;;;;;4.53;2.15;;;;;;;22.05;55.22;96119.84;5057465;28;20182;-83
2022/06/28 08:21:08;;;;;;;5.53;2.20;;;;;;;22.33;55.51;96109.88;5036703;28;20202;-82
2022/06/28 08:23:33;;;;;;;3.30;2.00;;;;;;;20.77;61.04;96103.22;5053942;28;20262;-81
2022/06/28 08:25:59;;;;;;;5.95;1.77;;;;;;;21.41;56.34;96099.31;5034106;28;20182;-82
2022/06/28 08:28:24;;;;;;;5.55;2.08;;;;;;;20.87;58.78;96100.19;5047627;28;20201;-82
2022/06/28 08:30:49;;;;;;;2.10;1.90;;;;;;;20.92;59.05;96098.56;5039739;28;20225;-82
2022/06/28 08:33:15;;;;;;;2.20;1.73;;;;;;;21.02;59.49;96102.66;5054369;28;20685;-82
2022/06/28 08:35:40;;;;;;;4.55;2.33;;;;;;;21.63;57.68;96097.28;5055809;28;20280;-82
2022/06/28 08:38:05;;;;;;;1.88;1.50;;;;;;;22.16;55.37;96097.28;5055877;28;20170;-82
2022/06/28 08:40:35;;;;;;;5.28;2.35;;;;;;;21.70;58.00;96091.00;5055606;28;20248;-82
2022/06/28 08:43:00;;;;;;;2.40;1.52;;;;;;;22.45;54.92;96093.38;5055594;28;20197;-81
2022/06/28 08:45:26;;;;;;;1.83;1.63;;;;;;;22.55;54.12;96088.44;5038230;28;20353;-82
2022/06/28 08:47:56;;;;;;;2.88;1.58;;;;;;;22.55;51.21;96086.59;5055123;28;20194;-82
2022/06/28 08:50:32;;;;;;;2.20;1.55;;;;;;;22.39;52.03;96088.91;5040526;28;20198;-82
2022/06/28 08:53:00;;;;;;;1.60;1.50;;;;;;;21.67;55.31;96095.88;5041512;28;20268;-82
2022/06/28 08:55:25;;;;;;;3.80;1.73;;;;;;;21.86;55.09;96105.63;5056110;28;20205;-82
2022/06/28 08:57:52;;;;;;;3.08;1.63;;;;;;;21.83;55.21;96103.41;5056809;28;20192;-82
2022/06/28 09:00:17;;;;;;;5.68;2.10;;;;;;;21.59;55.46;96101.38;5038316;28;20198;-82
2022/06/28 09:02:43;;;;;;;2.50;1.88;;;;;;;21.09;56.28;96088.47;5056780;28;20629;-83
2022/06/28 09:05:09;;;;;;;3.55;1.55;;;;;;;20.67;59.61;96080.81;5061030;28;20186;-82
2022/06/28 09:07:35;;;;;;;1.92;1.30;;;;;;;21.53;56.79;96078.41;5038204;28;20210;-82
2022/06/28 09:10:00;;;;;;;4.70;1.50;;;;;;;21.35;55.89;96085.09;5056173;28;20197;-82
2022/06/28 09:12:25;;;;;;;1.92;1.25;;;;;;;21.36;56.62;96080.63;5056397;28;20577;-80
2022/06/28 09:14:51;;;;;;;1.67;1.58;;;;;;;21.63;56.29;96065.59;5038370;28;20178;-81
2022/06/28 09:17:29;;;;;;;2.40;1.88;;;;;;;21.51;56.00;96065.38;5035663;28;20183;-80
2022/06/28 09:19:57;;;;;;;2.20;1.48;;;;;;;21.89;56.28;96072.69;5040509;28;20263;-82
2022/06/28 09:22:37;;;;;;;2.67;1.88;;;;;;;21.62;55.30;96072.69;5054694;28;20665;-82
2022/06/28 09:25:09;;;;;;;2.28;1.70;;;;;;;21.77;55.77;96080.44;5036901;28;20196;-82
2022/06/28 09:27:37;;;;;;;3.25;1.75;;;;;;;21.95;52.73;96074.50;5037841;28;20198;-82
2022/06/28 09:30:05;;;;;;;2.47;1.30;;;;;;;21.81;53.12;96075.53;5053649;28;20194;-80
2022/06/28 09:32:32;;;;;;;3.17;1.55;;;;;;;22.53;52.39;96087.84;5053077;28;20227;-82
2022/06/28 09:35:01;;;;;;;1.52;1.38;;;;;;;22.66;52.06;96090.44;5052405;28;20189;-81
2022/06/28 09:37:53;;;;;;;1.98;1.40;;;;;;;22.31;53.32;96082.81;5052710;28;20648;-81
2022/06/28 09:40:31;;;;;;;2.42;1.38;;;;;;;22.93;50.80;96075.25;5034287;28;20205;-82
2022/06/28 09:43:07;;;;;;;2.50;1.48;;;;;;;23.39;51.00;96071.50;5049316;28;20192;-82
2022/06/28 09:45:34;;;;;;;1.52;1.42;;;;;;;22.55;51.04;96075.22;5058577;28;20645;-82
2022/06/28 09:47:59;;;;;;;2.65;1.40;;;;;;;22.53;51.27;96080.72;5042329;28;20221;-82
2022/06/28 09:50:24;;;;;;;3.38;1.55;;;;;;;22.38;49.06;96082.00;5058732;28;20634;-83
2022/06/28 09:52:51;;;;;;;2.92;1.40;;;;;;;22.27;50.18;96078.97;5057608;28;20210;-82
2022/06/28 09:55:17;;;;;;;1.45;1.35;;;;;;;22.35;50.95;96069.97;5057585;28;20680;-82
2022/06/28 09:57:45;;;;;;;3.70;1.38;;;;;;;22.68;50.87;96075.16;5043042;28;20181;-83
2022/06/28 10:00:11;;;;;;;4.22;1.50;;;;;;;22.52;50.77;96071.13;5058135;28;20291;-82
2022/06/28 10:02:37;;;;;;;2.40;1.33;;;;;;;22.50;50.53;96067.88;5060426;28;20182;-82
2022/06/28 10:05:03;;;;;;;3.17;1.50;;;;;;;22.85;48.79;96070.22;5058595;28;20238;-82
2022/06/28 10:07:31;;;;;;;1.52;1.10;;;;;;;22.55;50.44;96068.09;5041664;28;20190;-82
2022/06/28 10:09:58;;;;;;;1.52;1.42;;;;;;;22.45;49.33;96067.72;5058425;28;20197;-82
2022/06/28 10:15:09;;;;;;;1.42;1.30;;;;;;;21.92;50.51;96059.06;5037810;28;20222;-82
2022/06/28 10:17:56;;;;;;;1.95;1.10;;;;;;;21.85;51.89;96048.50;5040842;28;20585;-81
2022/06/28 10:20:26;;;;;;;1.25;1.15;;;;;;;21.35;52.74;96047.28;5078513;28;20227;-81
2022/06/28 10:22:51;;;;;;;2.42;1.63;;;;;;;21.47;53.59;96037.75;5080536;28;20158;-81
2022/06/28 10:25:19;;;;;;;1.40;1.23;;;;;;;21.47;53.12;96035.13;5079897;28;20155;-80
2022/06/28 10:27:46;;;;;;;2.22;1.65;;;;;;;22.16;52.62;96037.25;5059480;28;20224;-80
2022/06/28 10:30:22;;;;;;;1.92;1.25;;;;;;;22.11;51.52;96031.81;5068201;28;20361;-81
2022/06/28 10:33:00;;;;;;;2.13;2.00;;;;;;;22.19;51.73;96044.00;5044614;28;20263;-81
2022/06/28 10:35:28;;;;;;;3.08;1.27;;;;;;;22.12;52.33;96041.34;5039921;28;20323;-81
2022/06/28 10:38:08;;;;;;;3.50;1.50;;;;;;;22.14;50.57;96039.31;5054223;28;20238;-80
2022/06/28 10:40:49;;;;;;;2.45;1.40;;;;;;;22.24;51.09;96044.16;5053201;28;20210;-81
2022/06/28 10:43:28;;;;;;;1.75;1.40;;;;;;;21.97;50.86;96046.84;5055340;28;20181;-81
2022/06/28 10:46:12;;;;;;;2.78;1.13;;;;;;;21.76;51.37;96039.97;5054544;28;20224;-81
2022/06/28 10:49:05;;;;;;;3.28;1.30;;;;;;;21.60;51.36;96026.34;5034061;28;20197;-81
2022/06/28 10:51:31;;;;;;;4.57;1.30;;;;;;;22.11;50.50;96025.69;4958042;28;20203;-81
2022/06/28 10:54:04;;;;;;;1.27;1.17;;;;;;;22.15;51.49;96017.13;4969632;28;20259;-82
2022/06/28 10:56:31;;;;;;;1.92;1.58;;;;;;;21.62;51.09;96011.91;4976574;28;20687;-81
2022/06/28 10:59:00;;;;;;;2.60;1.70;;;;;;;21.54;50.96;96004.19;4963821;28;20279;-82
2022/06/28 11:01:41;;;;;;;1.42;1.17;;;;;;;21.76;49.84;96002.97;4976139;28;20204;-81
2022/06/28 11:04:11;;;;;;;4.30;1.00;;;;;;;21.96;50.32;95997.63;4985696;28;20183;-82
2022/06/28 11:06:47;;;;;;;2.65;1.00;;;;;;;22.16;50.76;96002.88;4995531;28;20194;-81
2022/06/28 11:09:17;;;;;;;1.60;1.50;;;;;;;21.80;49.45;95991.97;4962552;28;20600;-80
2022/06/28 11:12:20;;;;;;;1.67;1.30;;;;;;;22.18;50.55;95985.00;4971403;28;20189;-81
2022/06/28 11:14:48;;;;;;;2.55;1.23;;;;;;;22.31;50.58;95969.03;4978985;28;20662;-81
2022/06/28 11:17:16;;;;;;;2.35;1.10;;;;;;;21.88;50.03;95974.03;4962670;28;20196;-81
2022/06/28 11:19:50;;;;;;;2.30;1.50;;;;;;;22.52;49.94;95975.84;4965377;28;20204;-81
2022/06/28 11:22:17;;;;;;;2.85;1.17;;;;;;;22.01;49.49;95973.22;4971388;28;20196;-80
2022/06/28 11:24:46;;;;;;;2.58;1.33;;;;;;;22.03;49.64;95960.59;4962652;28;20185;-80
2022/06/28 11:27:21;;;;;;;1.63;1.33;;;;;;;22.57;48.51;95954.06;4967148;28;20218;-80
2022/06/28 11:30:07;;;;;;;1.80;1.23;;;;;;;22.48;49.40;95952.69;5077841;28;20196;-79
2022/06/28 11:32:38;;;;;;;1.20;1.08;;;;;;;22.28;48.82;95950.16;5081038;28;20222;-81
2022/06/28 11:35:06;;;;;;;2.20;1.30;;;;;;;22.93;47.04;95944.69;5081321;28;20228;-80
2022/06/28 11:37:49;;;;;;;3.25;1.20;;;;;;;22.37;46.81;95948.88;5081178;28;20224;-79
2022/06/28 11:40:15;;;;;;;2.85;1.30;;;;;;;22.79;47.39;95952.72;5057781;28;20211;-82
2022/06/28 11:42:45;;;;;;;3.15;1.35;;;;;;;22.91;46.95;95944.09;5079767;28;20208;-81
2022/06/28 11:45:12;;;;;;;2.03;1.10;;;;;;;22.52;47.85;95952.03;5061369;28;20177;-80
2022/06/28 11:47:44;;;;;;;1.30;1.17;;;;;;;22.82;47.09;95944.34;5061003;28;20192;-80
2022/06/28 11:50:18;;;;;;;1.95;1.25;;;;;;;22.48;46.70;95942.91;5097000;28;20269;-80
2022/06/28 11:52:53;;;;;;;3.35;1.38;;;;;;;22.45;47.63;95953.13;5080079;28;20229;-80
2022/06/28 11:55:35;;;;;;;1.23;1.13;;;;;;;22.75;47.90;95943.56;5077136;28;20180;-80
2022/06/28 11:58:19;;;;;;;2.83;1.35;;;;;;;23.16;46.04;95952.88;5079292;28;20176;-81
2022/06/28 12:01:03;;;;;;;4.07;1.17;;;;;;;23.52;45.34;95940.75;5078755;28;20291;-81
2022/06/28 12:03:28;;;;;;;1.70;1.48;;;;;;;23.90;45.13;95953.81;5077397;28;20844;-81
2022/06/28 12:05:59;;;;;;;3.95;1.40;;;;;;;23.55;44.26;95956.19;5079743;28;20215;-80
2022/06/28 12:08:50;;;;;;;1.50;1.00;;;;;;;24.06;44.28;95961.19;5061140;28;20274;-81
2022/06/28 12:11:44;;;;;;;3.80;1.20;;;;;;;24.43;42.48;95954.03;5060634;28;20216;-80
2022/06/28 12:14:18;;;;;;;3.08;1.60;;;;;;;24.47;42.07;95952.56;5058871;28;20232;-81
2022/06/28 12:16:49;;;;;;;2.28;1.15;;;;;;;23.48;43.97;95950.13;5074062;28;20184;-81
2022/06/28 12:19:16;;;;;;;2.97;1.00;;;;;;;23.53;43.29;95950.31;5080793;28;20240;-80
2022/06/28 12:22:03;;;;;;;4.95;1.10;;;;;;;23.45;44.71;95943.44;5080238;28;20524;-81
2022/06/28 12:24:51;;;;;;;1.02;0.98;;;;;;;23.25;44.77;95937.53;5079460;28;20663;-80
2022/06/28 12:27:24;;;;;;;3.13;1.40;;;;;;;23.43;43.61;95935.72;5080104;28;20234;-81
2022/06/28 12:29:53;;;;;;;2.78;1.00;;;;;;;23.58;42.98;95931.88;5080769;28;20261;-81
2022/06/28 12:32:20;;;;;;;1.95;1.10;;;;;;;23.13;43.49;95926.81;5098627;28;20629;-80
2022/06/28 12:34:45;;;;;;;1.38;0.90;;;;;;;22.71;44.71;95945.03;5080254;28;20271;-81
2022/06/28 12:37:12;;;;;;;2.30;1.05;;;;;;;22.97;45.12;95941.41;5078832;28;20687;-81
2022/06/28 12:39:37;;;;;;;3.80;1.08;;;;;;;23.64;43.58;95931.06;5057387;28;20228;-81